sensor_id;sensor_type;location;lat;lon;timestamp;pressure;altitude;pressure_sealevel;temperature;humidity
33795;BME280;51430;52.242;21.118;2023-03-13T00:02:15;99841.00;;;1.90;74.44
33795;BME280;51430;52.242;21.118;2023-03-13T00:05:01;99838.67;;;1.81;74.74
33795;BME280;51430;52.242;21.118;2023-03-13T00:07:49;99834.31;;;1.89;74.41
33795;BME280;51430;52.242;21.118;2023-03-13T00:10:37;99833.52;;;1.85;74.64
33795;BME280;51430;52.242;21.118;2023-03-13T00:13:23;99825.70;;;1.90;74.80
33795;BME280;51430;52.242;21.118;2023-03-13T00:16:14;99828.56;;;1.80;74.92
33795;BME280;51430;52.242;21.118;2023-03-13T00:19:05;99826.52;;;1.77;75.31
33795;BME280;51430;52.242;21.118;2023-03-13T00:21:52;99825.91;;;1.82;75.34
33795;BME280;51430;52.242;21.118;2023-03-13T00:24:38;99826.87;;;1.80;75.18
33795;BME280;51430;52.242;21.118;2023-03-13T00:27:25;99826.55;;;1.76;75.44
33795;BME280;51430;52.242;21.118;2023-03-13T00:30:11;99824.27;;;1.80;75.41
33795;BME280;51430;52.242;21.118;2023-03-13T00:32:58;99814.78;;;1.88;75.07
33795;BME280;51430;52.242;21.118;2023-03-13T00:35:45;99817.84;;;1.92;75.12
33795;BME280;51430;52.242;21.118;2023-03-13T00:38:32;99820.49;;;1.94;74.70
33795;BME280;51430;52.242;21.118;2023-03-13T00:41:21;99822.30;;;1.89;74.96
33795;BME280;51430;52.242;21.118;2023-03-13T00:44:11;99825.46;;;1.94;74.84
33795;BME280;51430;52.242;21.118;2023-03-13T00:46:57;99825.53;;;2.00;74.69
33795;BME280;51430;52.242;21.118;2023-03-13T00:49:43;99824.29;;;2.04;74.50
33795;BME280;51430;52.242;21.118;2023-03-13T00:52:31;99824.26;;;1.95;74.45
33795;BME280;51430;52.242;21.118;2023-03-13T00:55:17;99824.85;;;2.00;74.60
33795;BME280;51430;52.242;21.118;2023-03-13T00:58:04;99824.90;;;2.09;74.50
33795;BME280;51430;52.242;21.118;2023-03-13T01:00:51;99824.92;;;2.09;74.31
33795;BME280;51430;52.242;21.118;2023-03-13T01:03:39;99826.65;;;2.12;74.46
33795;BME280;51430;52.242;21.118;2023-03-13T01:06:29;99818.91;;;2.12;74.32
33795;BME280;51430;52.242;21.118;2023-03-13T01:09:16;99812.60;;;2.11;74.45
33795;BME280;51430;52.242;21.118;2023-03-13T01:12:02;99804.81;;;2.09;74.52
33795;BME280;51430;52.242;21.118;2023-03-13T01:14:49;99804.80;;;2.16;74.41
33795;BME280;51430;52.242;21.118;2023-03-13T01:17:36;99795.15;;;2.20;74.27
33795;BME280;51430;52.242;21.118;2023-03-13T01:20:23;99781.59;;;2.19;74.23
33795;BME280;51430;52.242;21.118;2023-03-13T01:23:10;99779.38;;;2.19;74.53
33795;BME280;51430;52.242;21.118;2023-03-13T01:25:56;99775.11;;;2.28;74.09
33795;BME280;51430;52.242;21.118;2023-03-13T01:28:43;99775.48;;;2.24;74.14
33795;BME280;51430;52.242;21.118;2023-03-13T01:31:33;99773.15;;;2.26;74.45
33795;BME280;51430;52.242;21.118;2023-03-13T01:34:20;99771.98;;;2.32;74.07
33795;BME280;51430;52.242;21.118;2023-03-13T01:37:06;99767.14;;;2.36;74.21
33795;BME280;51430;52.242;21.118;2023-03-13T01:39:52;99765.23;;;2.33;74.14
33795;BME280;51430;52.242;21.118;2023-03-13T01:42:55;99764.84;;;2.24;74.41
33795;BME280;51430;52.242;21.118;2023-03-13T01:46:00;99758.41;;;2.29;74.40
33795;BME280;51430;52.242;21.118;2023-03-13T01:51:54;99747.83;;;2.20;74.80
33795;BME280;51430;52.242;21.118;2023-03-13T01:57:40;99736.68;;;2.27;74.53
33795;BME280;51430;52.242;21.118;2023-03-13T02:00:32;99732.12;;;2.32;74.53
33795;BME280;51430;52.242;21.118;2023-03-13T02:03:21;99731.64;;;2.34;74.36
33795;BME280;51430;52.242;21.118;2023-03-13T02:06:08;99735.95;;;2.27;74.68
33795;BME280;51430;52.242;21.118;2023-03-13T02:08:58;99729.50;;;2.32;74.57
33795;BME280;51430;52.242;21.118;2023-03-13T02:14:49;99730.75;;;2.22;75.06
33795;BME280;51430;52.242;21.118;2023-03-13T02:17:38;99732.98;;;2.35;74.70
33795;BME280;51430;52.242;21.118;2023-03-13T02:20:26;99731.21;;;2.33;74.91
33795;BME280;51430;52.242;21.118;2023-03-13T02:23:18;99730.54;;;2.26;75.34
33795;BME280;51430;52.242;21.118;2023-03-13T02:26:07;99733.27;;;2.26;75.37
33795;BME280;51430;52.242;21.118;2023-03-13T02:28:54;99731.01;;;2.27;75.49
33795;BME280;51430;52.242;21.118;2023-03-13T02:31:41;99726.23;;;2.26;75.60
33795;BME280;51430;52.242;21.118;2023-03-13T02:34:31;99723.14;;;2.32;75.55
33795;BME280;51430;52.242;21.118;2023-03-13T02:37:19;99724.47;;;2.43;75.33
33795;BME280;51430;52.242;21.118;2023-03-13T02:40:10;99720.55;;;2.39;75.52
33795;BME280;51430;52.242;21.118;2023-03-13T02:43:00;99728.61;;;2.39;75.86
33795;BME280;51430;52.242;21.118;2023-03-13T02:48:54;99726.11;;;2.63;74.85
33795;BME280;51430;52.242;21.118;2023-03-13T02:51:43;99718.86;;;2.67;74.75
33795;BME280;51430;52.242;21.118;2023-03-13T02:54:35;99725.77;;;2.73;74.49
33795;BME280;51430;52.242;21.118;2023-03-13T02:57:22;99728.14;;;2.77;74.34
33795;BME280;51430;52.242;21.118;2023-03-13T03:00:10;99726.70;;;2.78;74.36
33795;BME280;51430;52.242;21.118;2023-03-13T03:03:02;99727.20;;;2.81;74.17
33795;BME280;51430;52.242;21.118;2023-03-13T03:05:48;99726.14;;;2.82;74.23
33795;BME280;51430;52.242;21.118;2023-03-13T03:08:35;99730.64;;;2.84;74.48
33795;BME280;51430;52.242;21.118;2023-03-13T03:11:22;99727.20;;;2.84;74.37
33795;BME280;51430;52.242;21.118;2023-03-13T03:14:10;99727.73;;;2.81;74.77
33795;BME280;51430;52.242;21.118;2023-03-13T03:16:58;99731.89;;;2.80;74.84
33795;BME280;51430;52.242;21.118;2023-03-13T03:19:45;99727.92;;;2.81;75.18
33795;BME280;51430;52.242;21.118;2023-03-13T03:22:31;99720.77;;;2.86;75.04
33795;BME280;51430;52.242;21.118;2023-03-13T03:25:18;99716.27;;;2.83;75.22
33795;BME280;51430;52.242;21.118;2023-03-13T03:28:04;99715.92;;;2.89;74.99
33795;BME280;51430;52.242;21.118;2023-03-13T03:30:51;99719.15;;;2.80;75.63
33795;BME280;51430;52.242;21.118;2023-03-13T03:33:40;99721.48;;;2.79;75.90
33795;BME280;51430;52.242;21.118;2023-03-13T03:36:27;99718.19;;;2.82;75.72
33795;BME280;51430;52.242;21.118;2023-03-13T03:39:14;99712.38;;;2.82;75.98
33795;BME280;51430;52.242;21.118;2023-03-13T03:42:00;99715.24;;;2.89;75.91
33795;BME280;51430;52.242;21.118;2023-03-13T03:44:47;99724.58;;;2.95;75.74
33795;BME280;51430;52.242;21.118;2023-03-13T03:47:34;99719.48;;;2.87;75.97
33795;BME280;51430;52.242;21.118;2023-03-13T03:50:20;99713.61;;;2.81;76.44
33795;BME280;51430;52.242;21.118;2023-03-13T03:53:07;99715.88;;;2.87;76.35
33795;BME280;51430;52.242;21.118;2023-03-13T03:55:54;99712.77;;;2.87;76.55
33795;BME280;51430;52.242;21.118;2023-03-13T03:58:41;99705.08;;;2.80;76.68
33795;BME280;51430;52.242;21.118;2023-03-13T04:01:27;99699.42;;;2.89;76.43
33795;BME280;51430;52.242;21.118;2023-03-13T04:04:13;99699.70;;;2.87;76.56
33795;BME280;51430;52.242;21.118;2023-03-13T04:07:00;99686.50;;;2.95;76.40
33795;BME280;51430;52.242;21.118;2023-03-13T04:09:46;99682.86;;;2.90;76.57
33795;BME280;51430;52.242;21.118;2023-03-13T04:12:33;99680.88;;;2.88;76.75
33795;BME280;51430;52.242;21.118;2023-03-13T04:15:20;99674.49;;;2.85;76.89
33795;BME280;51430;52.242;21.118;2023-03-13T04:18:06;99673.84;;;2.82;77.39
33795;BME280;51430;52.242;21.118;2023-03-13T04:21:04;99671.05;;;2.88;77.10
33795;BME280;51430;52.242;21.118;2023-03-13T04:23:51;99676.63;;;2.96;77.00
33795;BME280;51430;52.242;21.118;2023-03-13T04:26:37;99675.25;;;2.99;77.38
33795;BME280;51430;52.242;21.118;2023-03-13T04:29:24;99674.64;;;3.01;77.98
33795;BME280;51430;52.242;21.118;2023-03-13T04:32:11;99670.23;;;3.06;78.17
33795;BME280;51430;52.242;21.118;2023-03-13T04:34:57;99663.84;;;3.00;78.74
33795;BME280;51430;52.242;21.118;2023-03-13T04:37:44;99653.55;;;2.96;79.28
33795;BME280;51430;52.242;21.118;2023-03-13T04:40:31;99649.04;;;2.91;79.81
33795;BME280;51430;52.242;21.118;2023-03-13T04:43:18;99647.30;;;2.91;80.49
33795;BME280;51430;52.242;21.118;2023-03-13T04:46:05;99642.61;;;2.92;80.50
33795;BME280;51430;52.242;21.118;2023-03-13T04:48:51;99643.52;;;2.91;80.83
33795;BME280;51430;52.242;21.118;2023-03-13T04:51:38;99642.37;;;2.96;80.91
33795;BME280;51430;52.242;21.118;2023-03-13T04:54:24;99644.13;;;2.99;81.28
33795;BME280;51430;52.242;21.118;2023-03-13T04:57:11;99641.90;;;3.04;81.71
33795;BME280;51430;52.242;21.118;2023-03-13T04:59:57;99642.45;;;3.04;82.18
33795;BME280;51430;52.242;21.118;2023-03-13T05:02:44;99642.77;;;3.07;82.56
33795;BME280;51430;52.242;21.118;2023-03-13T05:05:35;99630.54;;;3.05;83.05
33795;BME280;51430;52.242;21.118;2023-03-13T05:08:21;99629.21;;;3.04;83.90
33795;BME280;51430;52.242;21.118;2023-03-13T05:11:09;99623.02;;;3.09;83.84
33795;BME280;51430;52.242;21.118;2023-03-13T05:13:57;99627.19;;;3.03;84.75
33795;BME280;51430;52.242;21.118;2023-03-13T05:16:43;99627.08;;;3.14;84.18
33795;BME280;51430;52.242;21.118;2023-03-13T05:19:29;99623.47;;;3.11;84.21
33795;BME280;51430;52.242;21.118;2023-03-13T05:22:16;99622.23;;;3.08;84.71
33795;BME280;51430;52.242;21.118;2023-03-13T05:25:03;99616.23;;;3.11;85.10
33795;BME280;51430;52.242;21.118;2023-03-13T05:27:51;99618.71;;;3.16;85.55
33795;BME280;51430;52.242;21.118;2023-03-13T05:30:37;99620.86;;;3.17;86.00
33795;BME280;51430;52.242;21.118;2023-03-13T05:33:27;99621.98;;;3.21;86.12
33795;BME280;51430;52.242;21.118;2023-03-13T05:36:13;99620.36;;;3.20;86.92
33795;BME280;51430;52.242;21.118;2023-03-13T05:39:00;99611.15;;;3.27;86.72
33795;BME280;51430;52.242;21.118;2023-03-13T05:41:47;99616.48;;;3.24;87.10
33795;BME280;51430;52.242;21.118;2023-03-13T05:44:34;99614.80;;;3.35;86.46
33795;BME280;51430;52.242;21.118;2023-03-13T05:47:22;99615.75;;;3.34;85.41
33795;BME280;51430;52.242;21.118;2023-03-13T05:50:09;99620.69;;;3.29;85.78
33795;BME280;51430;52.242;21.118;2023-03-13T05:52:55;99628.41;;;3.35;85.97
33795;BME280;51430;52.242;21.118;2023-03-13T05:55:42;99626.08;;;3.45;85.48
33795;BME280;51430;52.242;21.118;2023-03-13T05:58:29;99629.71;;;3.48;86.30
33795;BME280;51430;52.242;21.118;2023-03-13T06:01:15;99630.66;;;3.49;86.48
33795;BME280;51430;52.242;21.118;2023-03-13T06:04:02;99626.42;;;3.45;87.57
33795;BME280;51430;52.242;21.118;2023-03-13T06:07:06;99619.84;;;3.55;87.79
33795;BME280;51430;52.242;21.118;2023-03-13T06:09:53;99616.11;;;3.45;88.98
33795;BME280;51430;52.242;21.118;2023-03-13T06:12:39;99615.29;;;3.47;89.72
33795;BME280;51430;52.242;21.118;2023-03-13T06:15:26;99618.27;;;3.52;90.38
33795;BME280;51430;52.242;21.118;2023-03-13T06:18:13;99616.37;;;3.55;90.70
33795;BME280;51430;52.242;21.118;2023-03-13T06:21:00;99619.54;;;3.57;91.06
33795;BME280;51430;52.242;21.118;2023-03-13T06:23:47;99616.36;;;3.61;91.35
33795;BME280;51430;52.242;21.118;2023-03-13T06:26:34;99615.29;;;3.67;91.54
33795;BME280;51430;52.242;21.118;2023-03-13T06:29:20;99610.38;;;3.69;91.79
33795;BME280;51430;52.242;21.118;2023-03-13T06:32:09;99608.28;;;3.78;91.92
33795;BME280;51430;52.242;21.118;2023-03-13T06:34:56;99613.16;;;3.77;92.26
33795;BME280;51430;52.242;21.118;2023-03-13T06:37:43;99616.76;;;3.80;92.56
33795;BME280;51430;52.242;21.118;2023-03-13T06:40:29;99614.33;;;3.77;93.07
33795;BME280;51430;52.242;21.118;2023-03-13T06:43:16;99614.00;;;3.72;94.00
33795;BME280;51430;52.242;21.118;2023-03-13T06:46:03;99613.27;;;3.72;94.80
33795;BME280;51430;52.242;21.118;2023-03-13T06:48:51;99609.27;;;3.64;95.61
33795;BME280;51430;52.242;21.118;2023-03-13T06:51:37;99609.83;;;3.66;96.24
33795;BME280;51430;52.242;21.118;2023-03-13T06:54:24;99606.77;;;3.69;96.42
33795;BME280;51430;52.242;21.118;2023-03-13T06:57:10;99601.75;;;3.72;96.52
33795;BME280;51430;52.242;21.118;2023-03-13T06:59:57;99603.17;;;3.74;96.47
33795;BME280;51430;52.242;21.118;2023-03-13T07:02:43;99601.23;;;3.75;96.79
33795;BME280;51430;52.242;21.118;2023-03-13T07:05:30;99597.73;;;3.78;96.79
33795;BME280;51430;52.242;21.118;2023-03-13T07:08:17;99594.05;;;3.71;96.94
33795;BME280;51430;52.242;21.118;2023-03-13T07:11:07;99592.27;;;3.69;97.29
33795;BME280;51430;52.242;21.118;2023-03-13T07:13:54;99588.14;;;3.75;97.60
33795;BME280;51430;52.242;21.118;2023-03-13T07:17:00;99590.03;;;3.80;97.65
33795;BME280;51430;52.242;21.118;2023-03-13T07:19:47;99585.98;;;3.84;97.60
33795;BME280;51430;52.242;21.118;2023-03-13T07:22:33;99585.16;;;3.92;97.64
33795;BME280;51430;52.242;21.118;2023-03-13T07:25:20;99584.80;;;4.01;97.43
33795;BME280;51430;52.242;21.118;2023-03-13T07:28:07;99591.06;;;4.09;96.79
33795;BME280;51430;52.242;21.118;2023-03-13T07:30:54;99594.64;;;4.12;96.96
33795;BME280;51430;52.242;21.118;2023-03-13T07:33:40;99594.55;;;4.17;96.56
33795;BME280;51430;52.242;21.118;2023-03-13T07:36:27;99583.58;;;4.15;96.45
33795;BME280;51430;52.242;21.118;2023-03-13T07:39:13;99578.13;;;4.28;96.31
33795;BME280;51430;52.242;21.118;2023-03-13T07:42:00;99568.10;;;4.37;95.59
33795;BME280;51430;52.242;21.118;2023-03-13T07:44:47;99571.80;;;4.41;95.30
33795;BME280;51430;52.242;21.118;2023-03-13T07:47:33;99569.71;;;4.44;95.01
33795;BME280;51430;52.242;21.118;2023-03-13T07:50:21;99568.38;;;4.56;94.62
33795;BME280;51430;52.242;21.118;2023-03-13T07:53:10;99569.89;;;4.62;94.26
33795;BME280;51430;52.242;21.118;2023-03-13T07:56:07;99567.17;;;4.75;93.81
33795;BME280;51430;52.242;21.118;2023-03-13T07:58:55;99563.48;;;4.75;93.45
33795;BME280;51430;52.242;21.118;2023-03-13T08:01:44;99562.14;;;4.96;93.02
33795;BME280;51430;52.242;21.118;2023-03-13T08:04:30;99560.02;;;5.07;91.97
33795;BME280;51430;52.242;21.118;2023-03-13T08:07:18;99558.40;;;5.16;91.94
33795;BME280;51430;52.242;21.118;2023-03-13T08:10:05;99555.38;;;5.37;91.06
33795;BME280;51430;52.242;21.118;2023-03-13T08:12:51;99554.80;;;5.41;90.71
33795;BME280;51430;52.242;21.118;2023-03-13T08:15:38;99546.11;;;5.57;90.53
33795;BME280;51430;52.242;21.118;2023-03-13T08:18:24;99548.31;;;5.72;89.83
33795;BME280;51430;52.242;21.118;2023-03-13T08:21:17;99543.15;;;5.77;89.26
33795;BME280;51430;52.242;21.118;2023-03-13T08:24:06;99548.70;;;5.64;89.35
33795;BME280;51430;52.242;21.118;2023-03-13T08:26:53;99547.84;;;5.82;89.14
33795;BME280;51430;52.242;21.118;2023-03-13T08:29:39;99549.95;;;5.83;88.77
33795;BME280;51430;52.242;21.118;2023-03-13T08:32:26;99550.90;;;5.88;89.02
33795;BME280;51430;52.242;21.118;2023-03-13T08:35:13;99560.55;;;5.75;89.14
33795;BME280;51430;52.242;21.118;2023-03-13T08:38:25;99551.67;;;5.76;89.43
33795;BME280;51430;52.242;21.118;2023-03-13T08:41:14;99551.61;;;5.80;89.67
33795;BME280;51430;52.242;21.118;2023-03-13T08:44:04;99541.94;;;5.84;89.46
33795;BME280;51430;52.242;21.118;2023-03-13T08:46:51;99541.01;;;5.93;89.32
33795;BME280;51430;52.242;21.118;2023-03-13T08:49:37;99537.70;;;6.06;88.69
33795;BME280;51430;52.242;21.118;2023-03-13T08:52:24;99526.27;;;6.16;88.49
33795;BME280;51430;52.242;21.118;2023-03-13T08:55:11;99518.14;;;6.25;87.99
33795;BME280;51430;52.242;21.118;2023-03-13T08:57:58;99517.72;;;6.31;87.83
33795;BME280;51430;52.242;21.118;2023-03-13T09:00:44;99514.56;;;6.45;87.47
33795;BME280;51430;52.242;21.118;2023-03-13T09:03:32;99500.59;;;6.66;86.71
33795;BME280;51430;52.242;21.118;2023-03-13T09:06:19;99490.19;;;6.64;86.68
33795;BME280;51430;52.242;21.118;2023-03-13T09:09:06;99484.82;;;7.07;85.81
33795;BME280;51430;52.242;21.118;2023-03-13T09:11:53;99480.83;;;7.67;83.90
33795;BME280;51430;52.242;21.118;2023-03-13T09:14:40;99481.63;;;7.93;82.15
33795;BME280;51430;52.242;21.118;2023-03-13T09:17:27;99471.88;;;8.17;81.40
33795;BME280;51430;52.242;21.118;2023-03-13T09:20:15;99471.54;;;8.30;80.47
33795;BME280;51430;52.242;21.118;2023-03-13T09:23:03;99462.09;;;8.42;80.58
33795;BME280;51430;52.242;21.118;2023-03-13T09:25:55;99456.75;;;8.68;79.64
33795;BME280;51430;52.242;21.118;2023-03-13T09:28:43;99449.35;;;8.84;79.36
33795;BME280;51430;52.242;21.118;2023-03-13T09:31:31;99445.79;;;8.97;79.12
33795;BME280;51430;52.242;21.118;2023-03-13T09:34:18;99442.67;;;9.34;78.80
33795;BME280;51430;52.242;21.118;2023-03-13T09:37:05;99440.30;;;9.71;77.46
33795;BME280;51430;52.242;21.118;2023-03-13T09:39:52;99437.21;;;10.04;76.61
33795;BME280;51430;52.242;21.118;2023-03-13T09:42:46;99431.24;;;10.09;75.98
33795;BME280;51430;52.242;21.118;2023-03-13T09:45:36;99426.53;;;10.43;75.48
33795;BME280;51430;52.242;21.118;2023-03-13T09:48:33;99427.08;;;10.49;74.92
33795;BME280;51430;52.242;21.118;2023-03-13T09:51:28;99423.74;;;10.74;74.65
33795;BME280;51430;52.242;21.118;2023-03-13T09:54:23;99423.49;;;10.86;73.80
33795;BME280;51430;52.242;21.118;2023-03-13T10:00:09;99418.90;;;10.94;73.65
33795;BME280;51430;52.242;21.118;2023-03-13T10:03:05;99409.27;;;11.00;73.80
33795;BME280;51430;52.242;21.118;2023-03-13T10:05:57;99403.52;;;11.02;73.67
33795;BME280;51430;52.242;21.118;2023-03-13T10:08:44;99400.77;;;11.10;73.55
33795;BME280;51430;52.242;21.118;2023-03-13T10:11:41;99395.67;;;11.13;73.21
33795;BME280;51430;52.242;21.118;2023-03-13T10:14:35;99395.36;;;11.16;73.16
33795;BME280;51430;52.242;21.118;2023-03-13T10:17:32;99381.77;;;11.34;72.82
33795;BME280;51430;52.242;21.118;2023-03-13T10:20:28;99386.48;;;11.45;72.60
33795;BME280;51430;52.242;21.118;2023-03-13T10:26:22;99384.52;;;11.52;72.43
33795;BME280;51430;52.242;21.118;2023-03-13T10:29:20;99381.38;;;11.47;72.60
33795;BME280;51430;52.242;21.118;2023-03-13T10:32:12;99390.65;;;11.53;72.18
33795;BME280;51430;52.242;21.118;2023-03-13T10:35:00;99380.00;;;11.47;72.85
33795;BME280;51430;52.242;21.118;2023-03-13T10:37:48;99382.25;;;11.38;72.72
33795;BME280;51430;52.242;21.118;2023-03-13T10:40:35;99381.79;;;11.28;73.32
33795;BME280;51430;52.242;21.118;2023-03-13T10:43:24;99380.03;;;11.16;73.87
33795;BME280;51430;52.242;21.118;2023-03-13T10:46:23;99370.51;;;11.09;74.83
33795;BME280;51430;52.242;21.118;2023-03-13T10:49:22;99367.11;;;11.20;74.89
33795;BME280;51430;52.242;21.118;2023-03-13T10:55:24;99351.81;;;11.28;75.67
33795;BME280;51430;52.242;21.118;2023-03-13T10:58:20;99344.74;;;11.22;75.65
33795;BME280;51430;52.242;21.118;2023-03-13T11:01:18;99340.03;;;11.31;76.30
33795;BME280;51430;52.242;21.118;2023-03-13T11:04:32;99342.05;;;11.53;74.61
33795;BME280;51430;52.242;21.118;2023-03-13T11:13:00;99323.95;;;11.75;74.05
33795;BME280;51430;52.242;21.118;2023-03-13T11:15:52;99320.05;;;11.66;73.74
33795;BME280;51430;52.242;21.118;2023-03-13T11:36:28;99277.16;;;12.95;67.69
33795;BME280;51430;52.242;21.118;2023-03-13T11:39:40;99268.67;;;12.99;67.60
33795;BME280;51430;52.242;21.118;2023-03-13T11:52:00;99241.35;;;14.41;62.27
33795;BME280;51430;52.242;21.118;2023-03-13T11:54:56;99227.12;;;14.61;60.06
33795;BME280;51430;52.242;21.118;2023-03-13T12:00:52;99222.64;;;13.74;60.26
33795;BME280;51430;52.242;21.118;2023-03-13T12:03:56;99225.23;;;13.40;61.07
33795;BME280;51430;52.242;21.118;2023-03-13T12:06:50;99216.50;;;13.18;62.01
33795;BME280;51430;52.242;21.118;2023-03-13T12:09:43;99214.70;;;13.20;62.23
33795;BME280;51430;52.242;21.118;2023-03-13T12:12:40;99207.39;;;13.23;61.81
33795;BME280;51430;52.242;21.118;2023-03-13T12:15:36;99212.79;;;13.28;61.29
33795;BME280;51430;52.242;21.118;2023-03-13T12:18:34;99209.31;;;13.17;61.71
33795;BME280;51430;52.242;21.118;2023-03-13T12:21:39;99204.02;;;13.25;61.77
33795;BME280;51430;52.242;21.118;2023-03-13T12:24:55;99206.56;;;13.32;61.08
33795;BME280;51430;52.242;21.118;2023-03-13T12:27:51;99200.90;;;13.12;61.34
33795;BME280;51430;52.242;21.118;2023-03-13T12:31:01;99201.98;;;13.10;61.55
33795;BME280;51430;52.242;21.118;2023-03-13T12:36:47;99187.48;;;12.94;62.84
33795;BME280;51430;52.242;21.118;2023-03-13T12:39:44;99183.00;;;12.87;63.57
33795;BME280;51430;52.242;21.118;2023-03-13T12:43:02;99187.14;;;12.89;63.54
33795;BME280;51430;52.242;21.118;2023-03-13T12:46:09;99176.23;;;12.83;64.74
33795;BME280;51430;52.242;21.118;2023-03-13T12:55:31;99171.97;;;12.35;67.61
33795;BME280;51430;52.242;21.118;2023-03-13T12:58:40;99169.80;;;12.11;68.94
33795;BME280;51430;52.242;21.118;2023-03-13T13:01:33;99163.76;;;11.95;70.25
33795;BME280;51430;52.242;21.118;2023-03-13T13:04:25;99166.98;;;11.80;71.56
33795;BME280;51430;52.242;21.118;2023-03-13T13:10:20;99146.83;;;11.73;72.79
33795;BME280;51430;52.242;21.118;2023-03-13T13:13:18;99142.45;;;11.74;72.97
33795;BME280;51430;52.242;21.118;2023-03-13T13:16:19;99142.88;;;11.66;73.67
33795;BME280;51430;52.242;21.118;2023-03-13T13:25:34;99141.69;;;11.31;77.32
33795;BME280;51430;52.242;21.118;2023-03-13T13:28:40;99134.33;;;11.17;78.96
33795;BME280;51430;52.242;21.118;2023-03-13T13:34:53;99125.95;;;11.08;80.97
33795;BME280;51430;52.242;21.118;2023-03-13T13:37:41;99115.61;;;11.07;81.69
33795;BME280;51430;52.242;21.118;2023-03-13T13:40:30;99110.67;;;11.10;82.03
33795;BME280;51430;52.242;21.118;2023-03-13T13:43:22;99106.70;;;11.10;82.08
33795;BME280;51430;52.242;21.118;2023-03-13T13:46:30;99102.38;;;11.05;83.28
33795;BME280;51430;52.242;21.118;2023-03-13T13:49:20;99102.90;;;10.94;84.45
33795;BME280;51430;52.242;21.118;2023-03-13T13:54:55;99099.52;;;10.77;87.43
33795;BME280;51430;52.242;21.118;2023-03-13T13:58:16;99096.27;;;10.66;89.74
33795;BME280;51430;52.242;21.118;2023-03-13T14:01:05;99093.90;;;10.54;91.21
33795;BME280;51430;52.242;21.118;2023-03-13T14:04:29;99095.94;;;10.44;92.03
33795;BME280;51430;52.242;21.118;2023-03-13T14:07:22;99097.34;;;10.33;94.04
33795;BME280;51430;52.242;21.118;2023-03-13T14:13:14;99069.89;;;10.22;95.77
33795;BME280;51430;52.242;21.118;2023-03-13T14:16:24;99063.77;;;10.18;96.17
33795;BME280;51430;52.242;21.118;2023-03-13T14:22:45;99053.11;;;10.17;96.80
33795;BME280;51430;52.242;21.118;2023-03-13T14:25:47;99057.86;;;10.15;97.10
33795;BME280;51430;52.242;21.118;2023-03-13T14:28:38;99053.52;;;10.15;96.93
33795;BME280;51430;52.242;21.118;2023-03-13T14:31:50;99045.23;;;10.15;96.90
33795;BME280;51430;52.242;21.118;2023-03-13T14:34:37;99045.23;;;10.21;97.08
33795;BME280;51430;52.242;21.118;2023-03-13T14:37:41;99044.86;;;10.32;96.43
33795;BME280;51430;52.242;21.118;2023-03-13T14:40:36;99036.59;;;10.33;96.43
33795;BME280;51430;52.242;21.118;2023-03-13T14:43:28;99034.61;;;10.35;96.62
33795;BME280;51430;52.242;21.118;2023-03-13T14:46:29;99023.20;;;10.45;96.08
33795;BME280;51430;52.242;21.118;2023-03-13T14:49:19;99015.34;;;10.43;96.43
33795;BME280;51430;52.242;21.118;2023-03-13T14:52:24;99006.15;;;10.52;96.30
33795;BME280;51430;52.242;21.118;2023-03-13T14:59:25;98985.83;;;10.39;96.07
33795;BME280;51430;52.242;21.118;2023-03-13T15:02:15;98981.92;;;10.38;96.43
33795;BME280;51430;52.242;21.118;2023-03-13T15:05:05;98980.00;;;10.38;95.65
33795;BME280;51430;52.242;21.118;2023-03-13T15:07:59;98981.49;;;10.37;95.32
33795;BME280;51430;52.242;21.118;2023-03-13T15:10:46;98984.54;;;10.34;95.14
33795;BME280;51430;52.242;21.118;2023-03-13T15:13:35;98982.23;;;10.22;95.77
33795;BME280;51430;52.242;21.118;2023-03-13T15:16:23;98973.63;;;10.16;96.31
33795;BME280;51430;52.242;21.118;2023-03-13T15:19:10;98978.34;;;10.05;97.37
33795;BME280;51430;52.242;21.118;2023-03-13T15:22:11;98979.75;;;10.01;97.84
33795;BME280;51430;52.242;21.118;2023-03-13T15:25:00;98975.61;;;9.99;98.36
33795;BME280;51430;52.242;21.118;2023-03-13T15:32:13;98974.16;;;9.96;98.73
33795;BME280;51430;52.242;21.118;2023-03-13T15:35:28;98965.05;;;10.02;97.52
33795;BME280;51430;52.242;21.118;2023-03-13T15:38:24;98966.57;;;10.06;97.12
33795;BME280;51430;52.242;21.118;2023-03-13T15:41:11;98969.05;;;10.09;97.08
33795;BME280;51430;52.242;21.118;2023-03-13T15:43:58;98962.48;;;10.07;96.88
33795;BME280;51430;52.242;21.118;2023-03-13T15:46:44;98962.64;;;10.14;95.19
33795;BME280;51430;52.242;21.118;2023-03-13T15:49:31;98959.68;;;10.12;95.22
33795;BME280;51430;52.242;21.118;2023-03-13T15:52:19;98963.45;;;10.10;95.70
33795;BME280;51430;52.242;21.118;2023-03-13T15:55:11;98961.66;;;10.12;95.58
33795;BME280;51430;52.242;21.118;2023-03-13T15:58:00;98956.27;;;10.10;95.96
33795;BME280;51430;52.242;21.118;2023-03-13T16:00:47;98957.80;;;10.06;96.03
33795;BME280;51430;52.242;21.118;2023-03-13T16:03:34;98958.66;;;10.07;96.10
33795;BME280;51430;52.242;21.118;2023-03-13T16:06:21;98963.20;;;10.12;95.96
33795;BME280;51430;52.242;21.118;2023-03-13T16:09:16;98966.42;;;10.08;96.26
33795;BME280;51430;52.242;21.118;2023-03-13T16:12:03;98959.17;;;10.11;96.10
33795;BME280;51430;52.242;21.118;2023-03-13T16:14:50;98962.27;;;10.13;95.76
33795;BME280;51430;52.242;21.118;2023-03-13T16:17:37;98963.14;;;10.15;95.27
33795;BME280;51430;52.242;21.118;2023-03-13T16:20:24;98955.33;;;10.12;95.14
33795;BME280;51430;52.242;21.118;2023-03-13T16:23:16;98963.34;;;10.23;93.90
33795;BME280;51430;52.242;21.118;2023-03-13T16:26:07;98961.27;;;10.21;93.86
33795;BME280;51430;52.242;21.118;2023-03-13T16:28:57;98961.30;;;10.26;93.57
33795;BME280;51430;52.242;21.118;2023-03-13T16:31:45;98954.52;;;10.28;93.35
33795;BME280;51430;52.242;21.118;2023-03-13T16:34:32;98962.77;;;10.34;93.26
33795;BME280;51430;52.242;21.118;2023-03-13T16:37:19;98963.38;;;10.33;92.74